sensor_id;sensor_type;location;lat;lon;timestamp;pressure;altitude;pressure_sealevel;temperature;humidity
2397;BME280;1209;48.410;9.054;2023-02-11T00:00:04;98125.72;;;-1.42;100.00
2397;BME280;1209;48.410;9.054;2023-02-11T00:02:31;98124.28;;;-1.49;100.00
2397;BME280;1209;48.410;9.054;2023-02-11T00:04:57;98118.13;;;-1.69;100.00
2397;BME280;1209;48.410;9.054;2023-02-11T00:07:22;98123.75;;;-2.09;100.00
2397;BME280;1209;48.410;9.054;2023-02-11T00:09:48;98128.63;;;-2.01;100.00
2397;BME280;1209;48.410;9.054;2023-02-11T00:12:13;98139.16;;;-1.84;100.00
2397;BME280;1209;48.410;9.054;2023-02-11T00:14:39;98127.03;;;-1.79;100.00
2397;BME280;1209;48.410;9.054;2023-02-11T00:17:05;98143.22;;;-1.78;100.00
2397;BME280;1209;48.410;9.054;2023-02-11T00:19:30;98157.28;;;-2.16;100.00
2397;BME280;1209;48.410;9.054;2023-02-11T00:21:55;98161.31;;;-2.09;100.00
2397;BME280;1209;48.410;9.054;2023-02-11T00:24:20;98165.75;;;-2.14;100.00
2397;BME280;1209;48.410;9.054;2023-02-11T00:26:45;98166.19;;;-2.28;100.00
2397;BME280;1209;48.410;9.054;2023-02-11T00:29:11;98170.31;;;-2.24;100.00
2397;BME280;1209;48.410;9.054;2023-02-11T00:31:36;98177.06;;;-2.22;100.00
2397;BME280;1209;48.410;9.054;2023-02-11T00:34:01;98169.81;;;-2.09;100.00
2397;BME280;1209;48.410;9.054;2023-02-11T00:36:28;98170.16;;;-1.93;100.00
2397;BME280;1209;48.410;9.054;2023-02-11T00:38:55;98175.81;;;-1.83;100.00
2397;BME280;1209;48.410;9.054;2023-02-11T00:41:21;98183.25;;;-1.76;100.00
2397;BME280;1209;48.410;9.054;2023-02-11T00:43:48;98180.44;;;-1.68;100.00
2397;BME280;1209;48.410;9.054;2023-02-11T00:46:14;98169.97;;;-1.62;100.00
2397;BME280;1209;48.410;9.054;2023-02-11T00:48:40;98177.56;;;-1.59;100.00
2397;BME280;1209;48.410;9.054;2023-02-11T00:51:05;98164.97;;;-1.65;100.00
2397;BME280;1209;48.410;9.054;2023-02-11T00:53:31;98171.34;;;-1.77;100.00
2397;BME280;1209;48.410;9.054;2023-02-11T00:55:56;98165.75;;;-1.63;100.00
2397;BME280;1209;48.410;9.054;2023-02-11T00:58:22;98159.25;;;-1.48;100.00
2397;BME280;1209;48.410;9.054;2023-02-11T01:00:48;98147.59;;;-1.57;100.00
2397;BME280;1209;48.410;9.054;2023-02-11T01:03:13;98164.75;;;-1.59;100.00
2397;BME280;1209;48.410;9.054;2023-02-11T01:05:39;98155.97;;;-1.52;100.00
2397;BME280;1209;48.410;9.054;2023-02-11T01:08:04;98163.53;;;-1.49;100.00
2397;BME280;1209;48.410;9.054;2023-02-11T01:10:29;98146.03;;;-1.61;100.00
2397;BME280;1209;48.410;9.054;2023-02-11T01:12:55;98148.00;;;-1.94;100.00
2397;BME280;1209;48.410;9.054;2023-02-11T01:15:20;98137.66;;;-1.91;100.00
2397;BME280;1209;48.410;9.054;2023-02-11T01:17:46;98143.72;;;-1.94;100.00
2397;BME280;1209;48.410;9.054;2023-02-11T01:20:18;98136.13;;;-1.70;100.00
2397;BME280;1209;48.410;9.054;2023-02-11T01:22:43;98138.56;;;-1.67;100.00
2397;BME280;1209;48.410;9.054;2023-02-11T01:25:08;98143.06;;;-1.74;100.00
2397;BME280;1209;48.410;9.054;2023-02-11T01:27:34;98141.56;;;-1.79;100.00
2397;BME280;1209;48.410;9.054;2023-02-11T01:30:00;98119.28;;;-1.77;100.00
2397;BME280;1209;48.410;9.054;2023-02-11T01:32:25;98125.03;;;-1.71;100.00
2397;BME280;1209;48.410;9.054;2023-02-11T01:34:50;98122.22;;;-1.63;100.00
2397;BME280;1209;48.410;9.054;2023-02-11T01:37:15;98127.09;;;-1.80;100.00
2397;BME280;1209;48.410;9.054;2023-02-11T01:39:42;98122.19;;;-1.86;100.00
2397;BME280;1209;48.410;9.054;2023-02-11T01:42:12;98125.34;;;-1.80;100.00
2397;BME280;1209;48.410;9.054;2023-02-11T01:44:39;98122.78;;;-2.05;100.00
2397;BME280;1209;48.410;9.054;2023-02-11T01:47:05;98119.09;;;-2.23;100.00
2397;BME280;1209;48.410;9.054;2023-02-11T01:49:33;98111.34;;;-1.95;100.00
2397;BME280;1209;48.410;9.054;2023-02-11T01:52:04;98107.31;;;-2.27;100.00
2397;BME280;1209;48.410;9.054;2023-02-11T01:54:34;98104.66;;;-2.24;100.00
2397;BME280;1209;48.410;9.054;2023-02-11T01:57:21;98104.69;;;-2.25;100.00
2397;BME280;1209;48.410;9.054;2023-02-11T02:00:07;98088.50;;;-2.01;100.00
2397;BME280;1209;48.410;9.054;2023-02-11T02:05:32;98080.78;;;-1.99;100.00
2397;BME280;1209;48.410;9.054;2023-02-11T02:08:19;98073.47;;;-1.85;100.00
2397;BME280;1209;48.410;9.054;2023-02-11T02:10:49;98078.72;;;-1.90;100.00
2397;BME280;1209;48.410;9.054;2023-02-11T02:13:18;98076.50;;;-1.99;100.00
2397;BME280;1209;48.410;9.054;2023-02-11T02:15:49;98077.19;;;-2.18;100.00
2397;BME280;1209;48.410;9.054;2023-02-11T02:27:19;98067.78;;;-2.44;100.00
2397;BME280;1209;48.410;9.054;2023-02-11T02:32:56;98052.47;;;-2.19;100.00
2397;BME280;1209;48.410;9.054;2023-02-11T02:35:39;98055.34;;;-2.04;100.00
2397;BME280;1209;48.410;9.054;2023-02-11T02:41:29;98048.19;;;-2.19;100.00
2397;BME280;1209;48.410;9.054;2023-02-11T02:43:56;98058.75;;;-2.28;100.00
2397;BME280;1209;48.410;9.054;2023-02-11T02:46:26;98049.09;;;-2.20;100.00
2397;BME280;1209;48.410;9.054;2023-02-11T02:48:53;98047.88;;;-2.10;100.00
2397;BME280;1209;48.410;9.054;2023-02-11T02:51:31;98047.09;;;-2.12;100.00
2397;BME280;1209;48.410;9.054;2023-02-11T02:54:16;98052.13;;;-2.09;100.00
2397;BME280;1209;48.410;9.054;2023-02-11T02:57:17;98062.41;;;-2.37;100.00
2397;BME280;1209;48.410;9.054;2023-02-11T03:02:58;98052.94;;;-2.08;100.00
2397;BME280;1209;48.410;9.054;2023-02-11T03:10:51;98062.97;;;-2.02;100.00
2397;BME280;1209;48.410;9.054;2023-02-11T03:13:19;98062.34;;;-2.09;100.00
2397;BME280;1209;48.410;9.054;2023-02-11T03:15:49;98052.13;;;-2.09;100.00
2397;BME280;1209;48.410;9.054;2023-02-11T03:18:17;98038.44;;;-2.08;100.00
2397;BME280;1209;48.410;9.054;2023-02-11T03:20:44;98044.22;;;-2.03;100.00
2397;BME280;1209;48.410;9.054;2023-02-11T03:23:28;98028.81;;;-2.01;100.00
2397;BME280;1209;48.410;9.054;2023-02-11T03:26:15;98033.41;;;-2.11;100.00
2397;BME280;1209;48.410;9.054;2023-02-11T03:28:50;98029.41;;;-2.18;100.00
2397;BME280;1209;48.410;9.054;2023-02-11T03:31:31;98026.53;;;-2.09;100.00
2397;BME280;1209;48.410;9.054;2023-02-11T03:34:00;98019.63;;;-2.07;100.00
2397;BME280;1209;48.410;9.054;2023-02-11T03:36:36;98028.63;;;-2.20;100.00
2397;BME280;1209;48.410;9.054;2023-02-11T03:39:03;98025.19;;;-2.19;100.00
2397;BME280;1209;48.410;9.054;2023-02-11T03:41:30;98035.19;;;-2.13;100.00
2397;BME280;1209;48.410;9.054;2023-02-11T03:43:58;98025.63;;;-2.08;100.00
2397;BME280;1209;48.410;9.054;2023-02-11T03:46:30;98033.16;;;-2.03;100.00
2397;BME280;1209;48.410;9.054;2023-02-11T03:49:01;98039.94;;;-2.02;100.00
2397;BME280;1209;48.410;9.054;2023-02-11T03:51:30;98039.25;;;-2.07;100.00
2397;BME280;1209;48.410;9.054;2023-02-11T03:53:59;98038.94;;;-1.98;100.00
2397;BME280;1209;48.410;9.054;2023-02-11T03:56:28;98045.56;;;-1.93;100.00
2397;BME280;1209;48.410;9.054;2023-02-11T03:58:55;98037.28;;;-1.99;100.00
2397;BME280;1209;48.410;9.054;2023-02-11T04:01:21;98043.28;;;-2.25;100.00
2397;BME280;1209;48.410;9.054;2023-02-11T04:03:46;98049.78;;;-2.41;100.00
2397;BME280;1209;48.410;9.054;2023-02-11T04:06:12;98069.31;;;-2.39;100.00
2397;BME280;1209;48.410;9.054;2023-02-11T04:08:37;98072.53;;;-2.59;100.00
2397;BME280;1209;48.410;9.054;2023-02-11T04:11:02;98073.06;;;-2.75;100.00
2397;BME280;1209;48.410;9.054;2023-02-11T04:13:28;98085.00;;;-2.49;100.00
2397;BME280;1209;48.410;9.054;2023-02-11T04:15:53;98087.97;;;-2.35;100.00
2397;BME280;1209;48.410;9.054;2023-02-11T04:18:18;98084.47;;;-2.33;100.00
2397;BME280;1209;48.410;9.054;2023-02-11T04:20:44;98079.22;;;-2.28;100.00
2397;BME280;1209;48.410;9.054;2023-02-11T04:23:09;98080.06;;;-2.28;100.00
2397;BME280;1209;48.410;9.054;2023-02-11T04:25:34;98061.41;;;-2.31;100.00
2397;BME280;1209;48.410;9.054;2023-02-11T04:28:00;98068.16;;;-2.29;100.00
2397;BME280;1209;48.410;9.054;2023-02-11T04:30:25;98059.47;;;-2.25;100.00
2397;BME280;1209;48.410;9.054;2023-02-11T04:32:50;98059.38;;;-2.22;100.00
2397;BME280;1209;48.410;9.054;2023-02-11T04:35:16;98065.38;;;-2.49;100.00
2397;BME280;1209;48.410;9.054;2023-02-11T04:37:41;98066.22;;;-2.48;100.00
2397;BME280;1209;48.410;9.054;2023-02-11T04:40:07;98057.50;;;-2.43;100.00
2397;BME280;1209;48.410;9.054;2023-02-11T04:42:32;98057.97;;;-2.57;100.00
2397;BME280;1209;48.410;9.054;2023-02-11T04:44:58;98043.81;;;-2.67;100.00
2397;BME280;1209;48.410;9.054;2023-02-11T04:47:23;98043.41;;;-2.55;100.00
2397;BME280;1209;48.410;9.054;2023-02-11T04:49:48;98043.63;;;-2.61;100.00
2397;BME280;1209;48.410;9.054;2023-02-11T04:52:13;98039.28;;;-2.32;100.00
2397;BME280;1209;48.410;9.054;2023-02-11T04:54:39;98033.06;;;-2.25;100.00
2397;BME280;1209;48.410;9.054;2023-02-11T04:57:04;98045.06;;;-2.27;100.00
2397;BME280;1209;48.410;9.054;2023-02-11T04:59:30;98039.06;;;-2.26;100.00
2397;BME280;1209;48.410;9.054;2023-02-11T05:01:55;98045.84;;;-2.25;100.00
2397;BME280;1209;48.410;9.054;2023-02-11T05:04:20;98032.69;;;-2.14;100.00
2397;BME280;1209;48.410;9.054;2023-02-11T05:06:46;98038.75;;;-2.17;100.00
2397;BME280;1209;48.410;9.054;2023-02-11T05:09:11;98035.41;;;-2.19;100.00
2397;BME280;1209;48.410;9.054;2023-02-11T05:11:37;98029.03;;;-2.07;100.00
2397;BME280;1209;48.410;9.054;2023-02-11T05:14:04;98034.63;;;-2.21;100.00
2397;BME280;1209;48.410;9.054;2023-02-11T05:16:30;98035.09;;;-2.10;100.00
2397;BME280;1209;48.410;9.054;2023-02-11T05:18:55;98026.38;;;-2.04;100.00
2397;BME280;1209;48.410;9.054;2023-02-11T05:21:20;98034.75;;;-2.01;100.00
2397;BME280;1209;48.410;9.054;2023-02-11T05:23:46;98036.72;;;-2.07;100.00
2397;BME280;1209;48.410;9.054;2023-02-11T05:26:12;98015.13;;;-2.00;100.00
2397;BME280;1209;48.410;9.054;2023-02-11T05:28:38;98012.56;;;-2.00;100.00
2397;BME280;1209;48.410;9.054;2023-02-11T05:31:04;98023.63;;;-2.00;100.00
2397;BME280;1209;48.410;9.054;2023-02-11T05:33:29;98013.19;;;-1.94;100.00
2397;BME280;1209;48.410;9.054;2023-02-11T05:36:04;98019.19;;;-1.95;100.00
2397;BME280;1209;48.410;9.054;2023-02-11T05:38:31;98030.66;;;-2.05;100.00
2397;BME280;1209;48.410;9.054;2023-02-11T05:40:56;98026.56;;;-1.85;100.00
2397;BME280;1209;48.410;9.054;2023-02-11T05:43:22;98019.38;;;-1.76;100.00
2397;BME280;1209;48.410;9.054;2023-02-11T05:45:52;98014.00;;;-1.68;100.00
2397;BME280;1209;48.410;9.054;2023-02-11T05:48:18;98011.59;;;-1.73;100.00
2397;BME280;1209;48.410;9.054;2023-02-11T05:50:43;98007.38;;;-1.74;100.00
2397;BME280;1209;48.410;9.054;2023-02-11T05:53:09;98001.00;;;-1.64;100.00
2397;BME280;1209;48.410;9.054;2023-02-11T05:55:35;97992.94;;;-1.53;100.00
2397;BME280;1209;48.410;9.054;2023-02-11T05:58:00;97995.41;;;-1.73;100.00
2397;BME280;1209;48.410;9.054;2023-02-11T06:00:26;97990.16;;;-1.70;100.00
2397;BME280;1209;48.410;9.054;2023-02-11T06:02:51;97989.44;;;-1.74;100.00
2397;BME280;1209;48.410;9.054;2023-02-11T06:05:17;97975.38;;;-1.85;100.00
2397;BME280;1209;48.410;9.054;2023-02-11T06:07:42;97966.09;;;-1.90;100.00
2397;BME280;1209;48.410;9.054;2023-02-11T06:10:08;97958.50;;;-1.68;100.00
2397;BME280;1209;48.410;9.054;2023-02-11T06:12:35;97940.50;;;-1.66;100.00
2397;BME280;1209;48.410;9.054;2023-02-11T06:15:00;97951.31;;;-1.81;100.00
2397;BME280;1209;48.410;9.054;2023-02-11T06:17:25;97947.75;;;-1.77;100.00
2397;BME280;1209;48.410;9.054;2023-02-11T06:19:52;97950.97;;;-1.72;100.00
2397;BME280;1209;48.410;9.054;2023-02-11T06:22:18;97955.28;;;-1.73;100.00
2397;BME280;1209;48.410;9.054;2023-02-11T06:24:43;97968.84;;;-1.71;100.00
2397;BME280;1209;48.410;9.054;2023-02-11T06:27:08;97989.22;;;-1.68;100.00
2397;BME280;1209;48.410;9.054;2023-02-11T06:29:34;97998.34;;;-1.37;100.00
2397;BME280;1209;48.410;9.054;2023-02-11T06:31:59;97990.88;;;-1.21;100.00
2397;BME280;1209;48.410;9.054;2023-02-11T06:34:24;97996.91;;;-1.22;100.00
2397;BME280;1209;48.410;9.054;2023-02-11T06:36:49;97980.41;;;-1.15;100.00
2397;BME280;1209;48.410;9.054;2023-02-11T06:39:15;97977.88;;;-1.17;100.00
2397;BME280;1209;48.410;9.054;2023-02-11T06:41:40;97986.41;;;-1.16;100.00
2397;BME280;1209;48.410;9.054;2023-02-11T06:44:05;97991.13;;;-1.06;100.00
2397;BME280;1209;48.410;9.054;2023-02-11T06:46:31;98002.66;;;-0.96;100.00
2397;BME280;1209;48.410;9.054;2023-02-11T06:48:56;98012.00;;;-0.93;100.00
2397;BME280;1209;48.410;9.054;2023-02-11T06:51:21;98012.84;;;-0.92;100.00
2397;BME280;1209;48.410;9.054;2023-02-11T06:53:47;98010.09;;;-0.88;100.00
2397;BME280;1209;48.410;9.054;2023-02-11T06:56:18;98011.88;;;-0.90;100.00
2397;BME280;1209;48.410;9.054;2023-02-11T06:58:44;98009.59;;;-0.98;100.00
2397;BME280;1209;48.410;9.054;2023-02-11T07:01:12;97998.38;;;-0.95;100.00
2397;BME280;1209;48.410;9.054;2023-02-11T07:03:41;98008.22;;;-0.84;100.00
2397;BME280;1209;48.410;9.054;2023-02-11T07:06:10;98016.03;;;-0.87;100.00
2397;BME280;1209;48.410;9.054;2023-02-11T07:08:36;98019.19;;;-0.81;100.00
2397;BME280;1209;48.410;9.054;2023-02-11T07:11:16;98023.69;;;-0.86;100.00
2397;BME280;1209;48.410;9.054;2023-02-11T07:13:43;98024.84;;;-0.73;100.00
2397;BME280;1209;48.410;9.054;2023-02-11T07:16:11;98027.09;;;-0.65;100.00
2397;BME280;1209;48.410;9.054;2023-02-11T07:18:37;98026.09;;;-0.61;100.00
2397;BME280;1209;48.410;9.054;2023-02-11T07:21:09;98031.78;;;-0.54;100.00
2397;BME280;1209;48.410;9.054;2023-02-11T07:23:35;98044.03;;;-0.61;100.00
2397;BME280;1209;48.410;9.054;2023-02-11T07:26:06;98043.59;;;-0.50;100.00
2397;BME280;1209;48.410;9.054;2023-02-11T07:28:33;98037.50;;;-0.48;100.00
2397;BME280;1209;48.410;9.054;2023-02-11T07:30:59;98031.50;;;-0.47;100.00
2397;BME280;1209;48.410;9.054;2023-02-11T07:33:29;98027.25;;;-0.48;100.00
2397;BME280;1209;48.410;9.054;2023-02-11T07:35:54;98016.47;;;-0.56;100.00
2397;BME280;1209;48.410;9.054;2023-02-11T07:38:19;98016.06;;;-0.45;100.00
2397;BME280;1209;48.410;9.054;2023-02-11T07:40:45;98010.41;;;-0.33;100.00
2397;BME280;1209;48.410;9.054;2023-02-11T07:43:10;98017.41;;;-0.37;100.00
2397;BME280;1209;48.410;9.054;2023-02-11T07:45:37;98016.25;;;-0.29;100.00
2397;BME280;1209;48.410;9.054;2023-02-11T07:48:03;98007.38;;;-0.22;100.00
2397;BME280;1209;48.410;9.054;2023-02-11T07:50:29;98008.72;;;-0.14;100.00
2397;BME280;1209;48.410;9.054;2023-02-11T07:52:54;98016.78;;;-0.03;100.00
2397;BME280;1209;48.410;9.054;2023-02-11T07:55:19;98015.97;;;-0.03;100.00
2397;BME280;1209;48.410;9.054;2023-02-11T07:57:45;98011.78;;;-0.06;100.00
2397;BME280;1209;48.410;9.054;2023-02-11T08:00:10;98014.22;;;-0.03;100.00
2397;BME280;1209;48.410;9.054;2023-02-11T08:02:36;98008.03;;;0.22;100.00
2397;BME280;1209;48.410;9.054;2023-02-11T08:05:01;98015.97;;;0.36;100.00
2397;BME280;1209;48.410;9.054;2023-02-11T08:07:26;98013.81;;;0.46;100.00
2397;BME280;1209;48.410;9.054;2023-02-11T08:09:53;98017.31;;;0.63;100.00
2397;BME280;1209;48.410;9.054;2023-02-11T08:12:19;98028.56;;;0.61;100.00
2397;BME280;1209;48.410;9.054;2023-02-11T08:14:44;98029.53;;;0.77;100.00
2397;BME280;1209;48.410;9.054;2023-02-11T08:17:10;98034.25;;;0.86;100.00
2397;BME280;1209;48.410;9.054;2023-02-11T08:19:35;98026.81;;;0.99;100.00
2397;BME280;1209;48.410;9.054;2023-02-11T08:22:01;98031.66;;;1.05;100.00
2397;BME280;1209;48.410;9.054;2023-02-11T08:24:26;98020.47;;;1.06;100.00
2397;BME280;1209;48.410;9.054;2023-02-11T08:26:51;98018.47;;;1.30;100.00
2397;BME280;1209;48.410;9.054;2023-02-11T08:29:17;98001.06;;;1.35;100.00
2397;BME280;1209;48.410;9.054;2023-02-11T08:31:44;98009.03;;;1.48;100.00
2397;BME280;1209;48.410;9.054;2023-02-11T08:34:12;98003.72;;;1.68;100.00
2397;BME280;1209;48.410;9.054;2023-02-11T08:36:40;98007.06;;;1.70;100.00
2397;BME280;1209;48.410;9.054;2023-02-11T08:39:14;98016.66;;;1.84;100.00
2397;BME280;1209;48.410;9.054;2023-02-11T08:41:40;98004.28;;;2.08;100.00
2397;BME280;1209;48.410;9.054;2023-02-11T08:44:05;98003.16;;;2.29;100.00
2397;BME280;1209;48.410;9.054;2023-02-11T08:46:30;98004.97;;;2.44;100.00
2397;BME280;1209;48.410;9.054;2023-02-11T08:48:56;98010.97;;;2.28;100.00
2397;BME280;1209;48.410;9.054;2023-02-11T08:51:26;98014.63;;;2.57;100.00
2397;BME280;1209;48.410;9.054;2023-02-11T08:53:53;98012.53;;;2.63;100.00
2397;BME280;1209;48.410;9.054;2023-02-11T08:56:19;98020.56;;;2.90;100.00
2397;BME280;1209;48.410;9.054;2023-02-11T08:58:45;98022.28;;;2.74;100.00
2397;BME280;1209;48.410;9.054;2023-02-11T09:01:17;98026.03;;;3.15;100.00
2397;BME280;1209;48.410;9.054;2023-02-11T09:03:43;98030.00;;;3.37;100.00
2397;BME280;1209;48.410;9.054;2023-02-11T09:06:09;98026.56;;;3.52;100.00
2397;BME280;1209;48.410;9.054;2023-02-11T09:08:40;98033.66;;;3.78;100.00
2397;BME280;1209;48.410;9.054;2023-02-11T09:11:06;98028.19;;;4.27;100.00
2397;BME280;1209;48.410;9.054;2023-02-11T09:13:32;98035.00;;;4.71;100.00
2397;BME280;1209;48.410;9.054;2023-02-11T09:15:59;98026.66;;;4.94;100.00
2397;BME280;1209;48.410;9.054;2023-02-11T09:18:25;98021.47;;;4.94;100.00
2397;BME280;1209;48.410;9.054;2023-02-11T09:20:51;98024.25;;;5.18;100.00
2397;BME280;1209;48.410;9.054;2023-02-11T09:23:16;98021.59;;;5.47;100.00
2397;BME280;1209;48.410;9.054;2023-02-11T09:25:42;98016.03;;;6.05;100.00
2397;BME280;1209;48.410;9.054;2023-02-11T09:28:08;98012.63;;;6.17;100.00
2397;BME280;1209;48.410;9.054;2023-02-11T09:30:35;98000.50;;;6.18;100.00
2397;BME280;1209;48.410;9.054;2023-02-11T09:33:01;98011.16;;;6.00;100.00
2397;BME280;1209;48.410;9.054;2023-02-11T09:35:26;98002.06;;;5.68;100.00
2397;BME280;1209;48.410;9.054;2023-02-11T09:37:52;98001.47;;;5.37;100.00
2397;BME280;1209;48.410;9.054;2023-02-11T09:40:17;98003.72;;;5.69;100.00
2397;BME280;1209;48.410;9.054;2023-02-11T09:42:52;98001.28;;;5.93;100.00
2397;BME280;1209;48.410;9.054;2023-02-11T09:45:24;98004.41;;;6.11;99.43
2397;BME280;1209;48.410;9.054;2023-02-11T09:47:56;98006.91;;;6.38;94.52
2397;BME280;1209;48.410;9.054;2023-02-11T09:50:29;98007.38;;;6.55;92.23
2397;BME280;1209;48.410;9.054;2023-02-11T09:53:00;98002.09;;;6.70;90.85
2397;BME280;1209;48.410;9.054;2023-02-11T09:55:29;98002.34;;;6.90;93.56
2397;BME280;1209;48.410;9.054;2023-02-11T09:57:56;97999.25;;;7.09;88.74
2397;BME280;1209;48.410;9.054;2023-02-11T10:00:27;98003.97;;;7.28;85.46
2397;BME280;1209;48.410;9.054;2023-02-11T10:11:33;97993.16;;;7.69;79.22
2397;BME280;1209;48.410;9.054;2023-02-11T10:14:17;97989.28;;;7.75;76.98
2397;BME280;1209;48.410;9.054;2023-02-11T10:17:08;97984.59;;;7.56;75.72
2397;BME280;1209;48.410;9.054;2023-02-11T10:19:40;97986.22;;;7.81;74.84
2397;BME280;1209;48.410;9.054;2023-02-11T10:22:17;97986.06;;;7.71;76.59
2397;BME280;1209;48.410;9.054;2023-02-11T10:24:50;97991.06;;;7.85;76.80
2397;BME280;1209;48.410;9.054;2023-02-11T10:27:20;97995.56;;;7.83;76.39
2397;BME280;1209;48.410;9.054;2023-02-11T10:29:52;97990.25;;;7.96;77.67
2397;BME280;1209;48.410;9.054;2023-02-11T10:32:30;97988.41;;;8.09;77.97
2397;BME280;1209;48.410;9.054;2023-02-11T10:35:00;97992.28;;;8.04;78.36
2397;BME280;1209;48.410;9.054;2023-02-11T10:37:26;97998.47;;;8.14;78.38
2397;BME280;1209;48.410;9.054;2023-02-11T10:39:52;97994.47;;;8.43;77.90
2397;BME280;1209;48.410;9.054;2023-02-11T10:42:17;97998.75;;;8.44;78.23
2397;BME280;1209;48.410;9.054;2023-02-11T10:44:58;97986.00;;;8.52;77.37
2397;BME280;1209;48.410;9.054;2023-02-11T10:47:27;97989.50;;;8.40;78.08
2397;BME280;1209;48.410;9.054;2023-02-11T10:49:54;97987.59;;;8.09;79.06
2397;BME280;1209;48.410;9.054;2023-02-11T10:52:30;97976.91;;;8.01;82.01
2397;BME280;1209;48.410;9.054;2023-02-11T10:54:56;97978.94;;;8.08;84.13
2397;BME280;1209;48.410;9.054;2023-02-11T10:57:26;97973.25;;;8.03;84.90
2397;BME280;1209;48.410;9.054;2023-02-11T11:00:03;97970.88;;;8.00;85.49
2397;BME280;1209;48.410;9.054;2023-02-11T11:02:31;97966.03;;;7.96;85.54
2397;BME280;1209;48.410;9.054;2023-02-11T11:05:14;97970.25;;;7.85;84.65
2397;BME280;1209;48.410;9.054;2023-02-11T11:07:52;97959.97;;;7.84;88.66
2397;BME280;1209;48.410;9.054;2023-02-11T11:12:57;97957.53;;;8.16;88.14
2397;BME280;1209;48.410;9.054;2023-02-11T11:15:30;97955.06;;;8.26;87.05
2397;BME280;1209;48.410;9.054;2023-02-11T11:18:15;97957.09;;;8.33;84.35
2397;BME280;1209;48.410;9.054;2023-02-11T11:20:55;97950.13;;;8.34;84.44
2397;BME280;1209;48.410;9.054;2023-02-11T11:23:24;97945.25;;;8.29;83.26
2397;BME280;1209;48.410;9.054;2023-02-11T11:26:11;97941.00;;;8.39;84.56
2397;BME280;1209;48.410;9.054;2023-02-11T11:28:58;97944.09;;;8.56;84.51
2397;BME280;1209;48.410;9.054;2023-02-11T11:31:28;97935.56;;;8.65;82.55
2397;BME280;1209;48.410;9.054;2023-02-11T11:33:57;97934.00;;;8.62;82.61
2397;BME280;1209;48.410;9.054;2023-02-11T11:36:32;97927.97;;;8.73;86.19
2397;BME280;1209;48.410;9.054;2023-02-11T11:39:01;97923.78;;;8.81;83.38
2397;BME280;1209;48.410;9.054;2023-02-11T11:41:30;97919.56;;;8.69;81.25
2397;BME280;1209;48.410;9.054;2023-02-11T11:44:20;97921.56;;;8.77;83.28
2397;BME280;1209;48.410;9.054;2023-02-11T11:46:48;97923.56;;;8.73;82.82
2397;BME280;1209;48.410;9.054;2023-02-11T11:49:29;97915.41;;;8.67;82.23
2397;BME280;1209;48.410;9.054;2023-02-11T11:54:45;97917.03;;;8.79;85.00
2397;BME280;1209;48.410;9.054;2023-02-11T11:57:25;97925.91;;;8.88;82.53
2397;BME280;1209;48.410;9.054;2023-02-11T11:59:52;97919.13;;;8.96;80.21
2397;BME280;1209;48.410;9.054;2023-02-11T12:05:13;97919.94;;;9.08;80.40
2397;BME280;1209;48.410;9.054;2023-02-11T12:10:52;97920.31;;;9.03;81.54
2397;BME280;1209;48.410;9.054;2023-02-11T12:16:32;97922.84;;;8.82;79.26
2397;BME280;1209;48.410;9.054;2023-02-11T12:22:02;97912.38;;;9.26;80.89
2397;BME280;1209;48.410;9.054;2023-02-11T12:30:32;97914.22;;;9.46;80.53
2397;BME280;1209;48.410;9.054;2023-02-11T12:38:31;97911.22;;;9.51;77.46
2397;BME280;1209;48.410;9.054;2023-02-11T12:43:35;97901.19;;;9.97;79.38
2397;BME280;1209;48.410;9.054;2023-02-11T12:56:45;97899.69;;;10.25;70.81
2397;BME280;1209;48.410;9.054;2023-02-11T12:59:37;97895.47;;;10.03;69.96
2397;BME280;1209;48.410;9.054;2023-02-11T13:02:14;97892.31;;;10.09;72.72
2397;BME280;1209;48.410;9.054;2023-02-11T13:04:47;97885.72;;;10.05;71.45
2397;BME280;1209;48.410;9.054;2023-02-11T13:07:18;97883.22;;;10.04;71.58
2397;BME280;1209;48.410;9.054;2023-02-11T13:10:03;97882.31;;;10.15;70.89
2397;BME280;1209;48.410;9.054;2023-02-11T13:12:32;97883.06;;;10.26;71.34
2397;BME280;1209;48.410;9.054;2023-02-11T13:15:18;97877.97;;;10.25;69.30
2397;BME280;1209;48.410;9.054;2023-02-11T13:20:20;97884.28;;;10.62;69.22
2397;BME280;1209;48.410;9.054;2023-02-11T13:23:03;97878.09;;;10.63;69.18
2397;BME280;1209;48.410;9.054;2023-02-11T13:28:22;97875.16;;;10.17;76.81
2397;BME280;1209;48.410;9.054;2023-02-11T13:30:53;97873.09;;;10.10;76.63
2397;BME280;1209;48.410;9.054;2023-02-11T13:33:34;97883.34;;;10.23;78.33
2397;BME280;1209;48.410;9.054;2023-02-11T13:38:27;97878.69;;;9.75;81.66
2397;BME280;1209;48.410;9.054;2023-02-11T13:41:02;97879.19;;;9.69;84.14
2397;BME280;1209;48.410;9.054;2023-02-11T13:43:30;97877.50;;;9.59;83.92
2397;BME280;1209;48.410;9.054;2023-02-11T13:46:04;97874.00;;;9.49;85.33
2397;BME280;1209;48.410;9.054;2023-02-11T13:48:34;97872.00;;;9.41;84.83
2397;BME280;1209;48.410;9.054;2023-02-11T13:51:04;97873.34;;;9.35;86.71
2397;BME280;1209;48.410;9.054;2023-02-11T13:56:11;97872.50;;;9.46;84.47
2397;BME280;1209;48.410;9.054;2023-02-11T13:58:48;97873.78;;;9.40;84.29
2397;BME280;1209;48.410;9.054;2023-02-11T14:04:32;97876.38;;;9.52;84.77
2397;BME280;1209;48.410;9.054;2023-02-11T14:07:28;97875.47;;;9.62;83.29
2397;BME280;1209;48.410;9.054;2023-02-11T14:13:29;97876.16;;;9.43;86.44
2397;BME280;1209;48.410;9.054;2023-02-11T14:16:09;97875.59;;;9.61;83.82
2397;BME280;1209;48.410;9.054;2023-02-11T14:23:41;97863.31;;;9.31;85.07
2397;BME280;1209;48.410;9.054;2023-02-11T14:28:56;97857.66;;;9.26;84.88
2397;BME280;1209;48.410;9.054;2023-02-11T14:31:26;97867.88;;;9.38;83.60
2397;BME280;1209;48.410;9.054;2023-02-11T14:42:22;97869.03;;;9.45;80.53
2397;BME280;1209;48.410;9.054;2023-02-11T14:44:53;97872.97;;;9.40;80.95
2397;BME280;1209;48.410;9.054;2023-02-11T14:47:22;97876.22;;;9.32;80.32
2397;BME280;1209;48.410;9.054;2023-02-11T14:49:49;97873.78;;;9.40;80.32
2397;BME280;1209;48.410;9.054;2023-02-11T14:52:28;97869.78;;;9.36;79.47
2397;BME280;1209;48.410;9.054;2023-02-11T14:55:23;97871.31;;;9.39;79.15
2397;BME280;1209;48.410;9.054;2023-02-11T14:58:16;97871.28;;;9.50;75.41
2397;BME280;1209;48.410;9.054;2023-02-11T15:00:57;97869.25;;;9.54;78.63
2397;BME280;1209;48.410;9.054;2023-02-11T15:06:01;97875.09;;;9.46;77.09
2397;BME280;1209;48.410;9.054;2023-02-11T15:08:28;97878.97;;;9.52;78.66
2397;BME280;1209;48.410;9.054;2023-02-11T15:10:54;97879.59;;;9.44;78.13
2397;BME280;1209;48.410;9.054;2023-02-11T15:13:23;97879.38;;;9.15;80.05
2397;BME280;1209;48.410;9.054;2023-02-11T15:16:03;97882.75;;;9.06;82.08
2397;BME280;1209;48.410;9.054;2023-02-11T15:18:34;97881.13;;;8.94;82.64
2397;BME280;1209;48.410;9.054;2023-02-11T15:21:01;97888.22;;;8.92;83.07